createdAt,value
2018-07-25T00:02:20.511Z,3.67
2018-07-25T00:04:48.278Z,4.00
2018-07-25T00:07:15.948Z,4.10
2018-07-25T00:09:43.987Z,3.77
2018-07-25T00:12:11.630Z,3.80
2018-07-25T00:14:39.295Z,3.70
2018-07-25T00:17:07.340Z,3.93
2018-07-25T00:19:35.009Z,3.77
2018-07-25T00:22:02.722Z,3.57
2018-07-25T00:24:30.835Z,3.57
2018-07-25T00:26:58.474Z,3.40
2018-07-25T00:29:26.081Z,4.00
2018-07-25T00:31:54.006Z,4.00
2018-07-25T00:34:21.610Z,4.00
2018-07-25T00:36:49.250Z,4.20
2018-07-25T00:39:17.173Z,3.50
2018-07-25T00:41:44.884Z,3.50
2018-07-25T00:44:12.482Z,3.87
2018-07-25T00:46:40.511Z,3.40
2018-07-25T00:49:08.153Z,3.90
2018-07-25T00:51:35.744Z,3.90
2018-07-25T00:54:03.834Z,4.00
2018-07-25T00:56:31.459Z,3.80
2018-07-25T00:58:59.094Z,4.13
2018-07-25T01:01:27.294Z,3.60
2018-07-25T01:03:54.915Z,4.10
2018-07-25T01:06:22.630Z,3.87
2018-07-25T01:08:50.792Z,3.70
2018-07-25T01:11:18.379Z,3.97
2018-07-25T01:13:45.983Z,3.83
2018-07-25T01:16:13.974Z,3.50
2018-07-25T01:18:41.609Z,4.07
2018-07-25T01:21:09.290Z,3.70
2018-07-25T01:23:37.288Z,3.77
2018-07-25T01:26:04.949Z,3.43
2018-07-25T01:28:32.612Z,3.33
2018-07-25T01:31:00.838Z,3.70
2018-07-25T01:33:28.341Z,3.10
2018-07-25T01:35:55.964Z,3.60
2018-07-25T01:38:24.023Z,3.67
2018-07-25T01:40:51.636Z,3.77
2018-07-25T01:43:19.267Z,3.37
2018-07-25T01:45:47.103Z,3.50
2018-07-25T01:48:14.674Z,3.37
2018-07-25T01:50:42.331Z,3.63
2018-07-25T01:53:10.295Z,3.50
2018-07-25T01:55:37.981Z,3.33
2018-07-25T01:58:05.643Z,3.80
2018-07-25T02:00:33.681Z,3.63
2018-07-25T02:03:01.416Z,3.33
2018-07-25T02:05:29.043Z,3.87
2018-07-25T02:07:57.037Z,3.80
2018-07-25T02:10:24.769Z,3.90
2018-07-25T02:12:52.372Z,4.00
2018-07-25T02:15:20.319Z,3.90
2018-07-25T02:17:47.980Z,3.80
2018-07-25T02:20:15.633Z,4.17
2018-07-25T02:22:43.611Z,3.80
2018-07-25T02:25:11.233Z,3.50
2018-07-25T02:27:38.836Z,3.90
2018-07-25T02:30:06.937Z,3.67
2018-07-25T02:32:34.546Z,4.20
2018-07-25T02:35:02.176Z,3.90
2018-07-25T02:37:30.274Z,3.63
2018-07-25T02:39:57.901Z,3.97
2018-07-25T02:42:25.559Z,3.87
2018-07-25T02:44:53.535Z,3.87
2018-07-25T02:47:21.189Z,3.67
2018-07-25T02:49:48.898Z,3.73
2018-07-25T02:52:16.629Z,3.77
2018-07-25T02:54:44.310Z,3.40
2018-07-25T02:57:11.962Z,3.93
2018-07-25T02:59:39.914Z,3.93
2018-07-25T03:02:07.561Z,3.43
2018-07-25T03:04:35.261Z,3.27
2018-07-25T03:07:03.480Z,3.60
2018-07-25T03:09:31.328Z,3.53
2018-07-25T03:11:58.994Z,3.60
2018-07-25T03:14:26.801Z,3.20
2018-07-25T03:16:54.401Z,3.40
2018-07-25T03:19:22.015Z,3.60
2018-07-25T03:21:50.011Z,3.73
2018-07-25T03:24:17.593Z,3.37
2018-07-25T03:26:45.186Z,3.40
2018-07-25T03:29:13.286Z,3.47
2018-07-25T03:31:41.051Z,3.27
2018-07-25T03:34:08.596Z,3.43
2018-07-25T03:36:36.748Z,3.37
2018-07-25T03:39:06.199Z,3.40
2018-07-25T03:41:33.854Z,3.50
2018-07-25T03:44:01.797Z,4.10
2018-07-25T03:46:29.378Z,3.37
2018-07-25T03:48:57.070Z,3.40
2018-07-25T03:51:25.174Z,3.37
2018-07-25T03:53:52.779Z,3.53
2018-07-25T03:56:20.348Z,3.40
2018-07-25T03:58:48.517Z,3.83
2018-07-25T04:01:16.090Z,3.73
2018-07-25T04:03:43.696Z,3.50
2018-07-25T04:06:11.672Z,3.70
2018-07-25T04:08:39.312Z,3.63
2018-07-25T04:11:07.198Z,3.50
2018-07-25T04:13:35.136Z,3.80
2018-07-25T04:16:02.693Z,3.90
2018-07-25T04:18:30.270Z,3.73
2018-07-25T04:20:58.315Z,3.70
2018-07-25T04:23:25.924Z,3.90
2018-07-25T04:25:53.556Z,3.90
2018-07-25T04:28:21.665Z,3.20
2018-07-25T04:30:49.312Z,3.83
2018-07-25T04:33:16.899Z,4.00
2018-07-25T04:35:44.956Z,3.90
2018-07-25T04:38:12.576Z,3.30
2018-07-25T04:40:40.157Z,4.03
2018-07-25T04:43:08.245Z,3.70
2018-07-25T04:45:35.905Z,3.80
2018-07-25T04:48:03.606Z,4.23
2018-07-25T04:50:31.517Z,3.50
2018-07-25T04:52:59.133Z,3.23
2018-07-25T04:55:26.778Z,3.33
2018-07-25T04:57:54.795Z,3.60
2018-07-25T05:00:22.409Z,3.27
2018-07-25T05:02:50.026Z,3.30
2018-07-25T05:05:18.109Z,3.53
2018-07-25T05:07:45.760Z,3.63
2018-07-25T05:10:13.428Z,3.40
2018-07-25T05:12:41.670Z,3.60
2018-07-25T05:15:09.296Z,3.70
2018-07-25T05:17:36.928Z,3.50
2018-07-25T05:20:04.955Z,3.10
2018-07-25T05:22:32.515Z,3.40
2018-07-25T05:25:00.126Z,3.33
2018-07-25T05:27:28.085Z,3.40
2018-07-25T05:29:55.696Z,3.63
2018-07-25T05:32:23.381Z,3.40
2018-07-25T05:34:51.437Z,3.63
2018-07-25T05:37:19.141Z,3.63
2018-07-25T05:39:46.790Z,3.80
2018-07-25T05:42:14.688Z,3.53
2018-07-25T05:44:42.331Z,3.80
2018-07-25T05:47:09.967Z,3.90
2018-07-25T05:49:38.078Z,4.20
2018-07-25T05:52:05.698Z,3.57
2018-07-25T05:54:33.197Z,3.40
2018-07-25T05:57:01.194Z,4.13
2018-07-25T05:59:28.737Z,3.93
2018-07-25T06:01:56.350Z,3.80
2018-07-25T06:04:24.476Z,3.40
2018-07-25T06:06:52.152Z,3.70
2018-07-25T06:09:19.711Z,3.90
2018-07-25T06:11:47.616Z,4.07
2018-07-25T06:14:15.516Z,3.77
2018-07-25T06:16:43.244Z,3.57
2018-07-25T06:19:11.199Z,3.83
2018-07-25T06:21:38.780Z,3.53
2018-07-25T06:24:06.362Z,4.10
2018-07-25T06:26:34.201Z,3.50
2018-07-25T06:29:01.842Z,3.47
2018-07-25T06:31:29.474Z,3.50
2018-07-25T06:33:57.506Z,3.97
2018-07-25T06:36:25.151Z,4.00
2018-07-25T06:38:52.684Z,3.87
2018-07-25T06:41:20.733Z,4.00
2018-07-25T06:43:48.793Z,3.50
2018-07-25T06:46:16.534Z,3.73
2018-07-25T06:48:44.515Z,3.70
2018-07-25T06:51:12.076Z,3.27
2018-07-25T06:53:39.818Z,3.97
2018-07-25T06:56:07.770Z,3.30
2018-07-25T06:58:35.381Z,3.73
2018-07-25T07:01:03.043Z,3.53
2018-07-25T07:03:30.842Z,3.67
2018-07-25T07:05:58.394Z,3.07
2018-07-25T07:08:26.042Z,3.23
2018-07-25T07:10:53.854Z,3.10
2018-07-25T07:13:21.425Z,3.57
2018-07-25T07:15:49.137Z,3.10
2018-07-25T07:18:16.940Z,3.40
2018-07-25T07:20:44.536Z,3.20
2018-07-25T07:23:12.210Z,2.90
2018-07-25T07:25:40.091Z,3.17
2018-07-25T07:28:07.722Z,3.00
2018-07-25T07:30:35.256Z,3.00
2018-07-25T07:33:03.146Z,2.80
2018-07-25T07:35:30.796Z,3.10
2018-07-25T07:37:58.324Z,3.30
2018-07-25T07:40:26.224Z,2.90
2018-07-25T07:42:53.838Z,3.37
2018-07-25T07:45:21.444Z,3.30
2018-07-25T07:47:49.416Z,3.23
2018-07-25T07:50:17.075Z,3.40
2018-07-25T07:52:44.662Z,2.90
2018-07-25T07:55:12.778Z,2.83
2018-07-25T07:57:40.353Z,3.00
2018-07-25T08:00:08.188Z,3.00
2018-07-25T08:02:36.394Z,2.97
2018-07-25T08:05:04.402Z,3.37
2018-07-25T08:07:31.949Z,2.90
2018-07-25T08:09:59.708Z,3.00
2018-07-25T08:12:27.250Z,2.93
2018-07-25T08:14:54.823Z,3.17
2018-07-25T08:17:22.841Z,3.23
2018-07-25T08:19:50.405Z,2.97
2018-07-25T08:22:18.018Z,2.97
2018-07-25T08:24:45.989Z,3.40
2018-07-25T08:27:13.533Z,2.87
2018-07-25T08:29:41.169Z,3.10
2018-07-25T08:32:09.144Z,3.03
2018-07-25T08:37:11.081Z,2.90
2018-07-25T08:39:38.680Z,3.37
2018-07-25T08:42:06.308Z,3.20
2018-07-25T08:44:34.220Z,2.97
2018-07-25T08:47:01.923Z,3.37
2018-07-25T08:49:29.538Z,3.40
2018-07-25T08:51:57.767Z,2.90
2018-07-25T08:54:25.338Z,3.47
2018-07-25T08:56:52.897Z,3.40
2018-07-25T08:59:20.712Z,3.30
2018-07-25T09:01:48.334Z,2.70
2018-07-25T09:04:15.860Z,3.00
2018-07-25T09:06:43.718Z,3.33
2018-07-25T09:09:11.373Z,2.77
2018-07-25T09:11:38.924Z,3.03
2018-07-25T09:14:06.621Z,2.90
2018-07-25T09:16:34.287Z,3.17
2018-07-25T09:19:02.607Z,2.80
2018-07-25T09:21:30.443Z,2.93
2018-07-25T09:23:58.082Z,3.23
2018-07-25T09:26:25.682Z,3.07
2018-07-25T09:28:53.791Z,2.60
2018-07-25T09:31:21.428Z,2.70
2018-07-25T09:33:49.073Z,2.90
2018-07-25T09:36:16.874Z,3.17
2018-07-25T09:38:44.518Z,2.77
2018-07-25T09:41:12.139Z,3.00
2018-07-25T09:43:40.126Z,3.30
2018-07-25T09:46:07.809Z,3.00
2018-07-25T09:48:35.355Z,3.23
2018-07-25T09:51:03.139Z,3.03
2018-07-25T09:53:30.772Z,2.60
2018-07-25T09:55:58.363Z,2.60
2018-07-25T09:58:26.219Z,2.87
2018-07-25T10:00:53.858Z,2.73
2018-07-25T10:03:21.382Z,3.10
2018-07-25T10:05:49.400Z,3.00
2018-07-25T10:08:17.495Z,2.87
2018-07-25T10:10:45.329Z,3.00
2018-07-25T10:13:13.294Z,2.70
2018-07-25T10:15:40.885Z,2.70
2018-07-25T10:18:08.492Z,2.60
2018-07-25T10:20:36.498Z,2.83
2018-07-25T10:23:04.252Z,3.13
2018-07-25T10:25:32.044Z,2.83
2018-07-25T10:28:00.032Z,2.53
2018-07-25T10:30:27.642Z,2.83
2018-07-25T10:32:55.294Z,3.00
2018-07-25T10:35:23.331Z,2.80
2018-07-25T10:37:50.835Z,2.87
2018-07-25T10:40:18.427Z,2.70
2018-07-25T10:42:46.616Z,2.50
2018-07-25T10:45:14.178Z,3.13
2018-07-25T10:47:41.749Z,3.00
2018-07-25T10:50:09.982Z,2.77
2018-07-25T10:52:37.582Z,2.60
2018-07-25T10:55:05.367Z,2.70
2018-07-25T10:57:33.764Z,2.57
2018-07-25T11:00:01.490Z,2.60
2018-07-25T11:02:29.155Z,2.33
2018-07-25T11:04:57.020Z,2.70
2018-07-25T11:07:24.555Z,3.00
2018-07-25T11:09:52.142Z,2.77
2018-07-25T11:12:20.039Z,2.63
2018-07-25T11:14:47.623Z,2.80
2018-07-25T11:17:15.193Z,2.77
2018-07-25T11:19:43.293Z,2.70
2018-07-25T11:22:11.053Z,2.60
2018-07-25T11:24:38.581Z,2.60
2018-07-25T11:27:06.650Z,2.83
2018-07-25T11:29:34.231Z,2.53
2018-07-25T11:32:01.892Z,2.73
2018-07-25T11:34:29.979Z,2.47
2018-07-25T11:36:57.664Z,2.83
2018-07-25T11:39:25.295Z,2.50
2018-07-25T11:41:53.232Z,2.33
2018-07-25T11:44:20.803Z,2.30
2018-07-25T11:46:48.405Z,2.57
2018-07-25T11:49:16.302Z,2.60
2018-07-25T11:51:43.952Z,3.07
2018-07-25T11:54:11.562Z,2.40
2018-07-25T11:56:39.578Z,2.50
2018-07-25T11:59:07.178Z,2.60
2018-07-25T12:01:34.836Z,2.37
2018-07-25T12:04:02.885Z,2.50
2018-07-25T12:06:30.455Z,2.53
2018-07-25T12:08:58.168Z,2.53
2018-07-25T12:11:26.362Z,2.30
2018-07-25T12:13:54.145Z,2.70
2018-07-25T12:16:21.745Z,2.50
2018-07-25T12:18:49.648Z,2.70
2018-07-25T12:21:17.240Z,2.40
2018-07-25T12:23:44.991Z,2.93
2018-07-25T12:26:12.952Z,2.80
2018-07-25T12:28:40.552Z,2.60
2018-07-25T12:31:08.386Z,2.60
2018-07-25T12:33:36.143Z,2.80
2018-07-25T12:36:04.181Z,2.67
2018-07-25T12:38:31.820Z,2.30
2018-07-25T12:40:59.614Z,2.67
2018-07-25T12:43:27.159Z,2.50
2018-07-25T12:45:54.823Z,2.50
2018-07-25T12:48:22.564Z,2.60
2018-07-25T12:50:50.143Z,2.93
2018-07-25T12:53:17.815Z,2.73
2018-07-25T12:55:45.734Z,2.30
2018-07-25T12:58:13.373Z,2.50
2018-07-25T13:00:40.986Z,2.50
2018-07-25T13:03:08.868Z,2.70
2018-07-25T13:05:36.525Z,2.87
2018-07-25T13:08:04.174Z,2.77
2018-07-25T13:10:32.149Z,2.70
2018-07-25T13:12:59.714Z,2.37
2018-07-25T13:15:27.314Z,2.50
2018-07-25T13:17:55.232Z,2.70
2018-07-25T13:20:22.823Z,2.93
2018-07-25T13:22:50.532Z,2.53
2018-07-25T13:25:18.669Z,2.40
2018-07-25T13:27:46.276Z,2.60
2018-07-25T13:30:13.887Z,2.37
2018-07-25T13:32:41.854Z,2.47
2018-07-25T13:35:09.476Z,2.70
2018-07-25T13:37:37.104Z,2.50
2018-07-25T13:40:05.151Z,2.83
2018-07-25T13:42:32.841Z,2.50
2018-07-25T13:45:00.414Z,2.70
2018-07-25T13:47:28.276Z,2.40
2018-07-25T13:49:56.005Z,2.60
2018-07-25T13:52:23.522Z,2.57
2018-07-25T13:54:51.520Z,2.57
2018-07-25T13:57:19.138Z,3.10
2018-07-25T13:59:46.847Z,2.50
2018-07-25T14:02:14.552Z,2.77
2018-07-25T14:04:42.143Z,2.73
2018-07-25T14:07:09.747Z,2.50
2018-07-25T14:09:37.487Z,2.90
2018-07-25T14:12:05.170Z,2.50
2018-07-25T14:14:32.690Z,2.20
2018-07-25T14:17:00.468Z,3.00
2018-07-25T14:19:28.060Z,2.90
2018-07-25T14:21:55.610Z,2.63
2018-07-25T14:24:23.556Z,2.53
2018-07-25T14:26:51.292Z,2.60
2018-07-25T14:29:18.917Z,2.80
2018-07-25T14:31:46.939Z,2.23
2018-07-25T14:34:14.470Z,2.70
2018-07-25T14:36:42.040Z,2.83
2018-07-25T14:39:10.651Z,2.57
2018-07-25T14:41:38.950Z,2.60
2018-07-25T14:44:06.561Z,2.50
2018-07-25T14:46:34.575Z,2.90
2018-07-25T14:49:02.072Z,2.60
2018-07-25T14:51:29.670Z,2.37
2018-07-25T14:53:58.887Z,2.90
2018-07-25T14:56:26.507Z,2.33
2018-07-25T14:58:54.031Z,2.60
2018-07-25T15:01:22.095Z,2.40
2018-07-25T15:03:49.623Z,2.70
2018-07-25T15:06:17.193Z,2.57
2018-07-25T15:08:45.042Z,2.70
2018-07-25T15:11:12.628Z,2.67
2018-07-25T15:13:40.209Z,2.90
2018-07-25T15:16:08.309Z,2.40
2018-07-25T15:18:35.903Z,2.13
2018-07-25T15:21:03.553Z,2.60
2018-07-25T15:23:42.463Z,2.97
2018-07-25T15:26:10.101Z,2.83
2018-07-25T15:28:37.723Z,2.50
2018-07-25T15:31:05.603Z,2.60
2018-07-25T15:33:33.293Z,2.37
2018-07-25T15:36:00.899Z,2.63
2018-07-25T15:38:28.698Z,2.70
2018-07-25T15:40:56.417Z,2.33
2018-07-25T15:43:24.193Z,2.57
2018-07-25T15:45:51.978Z,2.50
2018-07-25T15:48:19.779Z,2.80
2018-07-25T15:50:47.382Z,2.43
2018-07-25T15:53:15.135Z,2.73
2018-07-25T15:55:42.958Z,2.37
2018-07-25T15:58:10.620Z,2.33
2018-07-25T16:00:38.270Z,2.80
2018-07-25T16:03:06.093Z,2.90
2018-07-25T16:05:33.663Z,2.57
2018-07-25T16:08:01.357Z,2.63
2018-07-25T16:10:29.059Z,2.60
2018-07-25T16:12:56.658Z,2.13
2018-07-25T16:15:24.514Z,2.60
2018-07-25T16:17:52.194Z,2.47
2018-07-25T16:20:19.757Z,3.03
2018-07-25T16:22:47.522Z,2.40
2018-07-25T16:25:15.347Z,2.73
2018-07-25T16:27:42.981Z,2.20
2018-07-25T16:30:10.627Z,2.50
2018-07-25T16:32:38.468Z,2.27
2018-07-25T16:35:06.012Z,2.90
2018-07-25T16:37:33.640Z,2.40
2018-07-25T16:40:01.423Z,2.50
2018-07-25T16:42:29.002Z,2.57
2018-07-25T16:44:57.184Z,2.53
2018-07-25T16:47:24.997Z,2.80
2018-07-25T16:49:52.640Z,2.63
2018-07-25T16:52:20.497Z,2.50
2018-07-25T16:54:48.331Z,2.90
2018-07-25T16:57:15.943Z,2.53
2018-07-25T16:59:43.670Z,2.60
2018-07-25T17:02:11.792Z,2.70
2018-07-25T17:04:39.722Z,2.50
2018-07-25T17:07:07.421Z,2.50
2018-07-25T17:09:35.104Z,2.33
2018-07-25T17:12:02.774Z,2.70
2018-07-25T17:14:30.414Z,2.73
2018-07-25T17:16:58.093Z,2.60
2018-07-25T17:19:25.683Z,2.67
2018-07-25T17:21:53.316Z,3.00
2018-07-25T17:24:21.061Z,2.67
2018-07-25T17:26:48.676Z,2.60
2018-07-25T17:29:16.494Z,2.43
2018-07-25T17:31:44.152Z,2.87
2018-07-25T17:34:11.730Z,2.43
2018-07-25T17:36:39.368Z,2.90
2018-07-25T17:39:08.747Z,2.90
2018-07-25T17:41:36.473Z,2.93
2018-07-25T17:44:04.349Z,2.73
2018-07-25T17:46:32.264Z,2.93
2018-07-25T17:48:59.816Z,2.80
2018-07-25T17:51:27.615Z,2.63
2018-07-25T17:53:55.363Z,2.77
2018-07-25T17:56:23.138Z,3.07
2018-07-25T17:58:50.908Z,2.93
2018-07-25T18:01:18.702Z,3.17
2018-07-25T18:03:46.298Z,3.07
2018-07-25T18:06:13.933Z,2.80
2018-07-25T18:08:41.556Z,3.37
2018-07-25T18:11:09.141Z,3.10
2018-07-25T18:13:42.277Z,2.90
2018-07-25T18:16:10.290Z,2.93
2018-07-25T18:18:37.882Z,2.90
2018-07-25T18:21:05.584Z,2.67
2018-07-25T18:23:33.387Z,3.10
2018-07-25T18:26:01.008Z,2.93
2018-07-25T18:28:28.587Z,2.83
2018-07-25T18:30:56.458Z,2.80
2018-07-25T18:33:24.041Z,3.47
2018-07-25T18:35:51.682Z,3.20
2018-07-25T18:38:19.476Z,3.00
2018-07-25T18:40:47.132Z,2.73
2018-07-25T18:43:14.711Z,3.17
2018-07-25T18:45:42.585Z,3.40
2018-07-25T18:48:10.428Z,2.93
2018-07-25T18:50:37.978Z,3.07
2018-07-25T18:53:05.897Z,3.53
2018-07-25T18:55:33.456Z,3.53
2018-07-25T18:58:01.040Z,3.00
2018-07-25T19:00:28.853Z,3.27
2018-07-25T19:02:56.440Z,3.07
2018-07-25T19:05:30.327Z,3.40
2018-07-25T19:07:58.756Z,3.20
2018-07-25T19:10:26.285Z,3.10
2018-07-25T19:12:54.196Z,3.10
2018-07-25T19:15:27.316Z,3.10
2018-07-25T19:17:55.046Z,3.60
2018-07-25T19:20:22.927Z,3.33
2018-07-25T19:22:50.799Z,3.87
2018-07-25T19:25:18.695Z,3.30
2018-07-25T19:27:46.372Z,3.17
2018-07-25T19:30:13.958Z,3.17
2018-07-25T19:32:41.701Z,3.30
2018-07-25T19:35:09.507Z,3.30
2018-07-25T19:37:37.109Z,3.20
2018-07-25T19:40:04.963Z,3.50
2018-07-25T19:42:32.821Z,3.30
2018-07-25T19:45:00.452Z,3.53
2018-07-25T19:47:28.088Z,3.23
2018-07-25T19:49:56.143Z,3.30
2018-07-25T19:52:23.732Z,3.17
2018-07-25T19:54:51.479Z,3.00
2018-07-25T19:57:19.287Z,3.37
2018-07-25T19:59:46.920Z,3.40
2018-07-25T20:02:14.686Z,3.30
2018-07-25T20:04:42.574Z,3.00
2018-07-25T20:07:10.157Z,3.53
2018-07-25T20:09:38.701Z,3.33
2018-07-25T20:12:06.838Z,3.60
2018-07-25T20:14:40.135Z,3.63
2018-07-25T20:17:08.529Z,3.20
2018-07-25T20:19:36.252Z,3.40
2018-07-25T20:22:03.957Z,3.30
2018-07-25T20:24:32.019Z,3.97
2018-07-25T20:26:59.581Z,3.33
2018-07-25T20:29:27.155Z,3.60
2018-07-25T20:31:55.117Z,3.67
2018-07-25T20:34:22.722Z,3.37
2018-07-25T20:36:50.382Z,3.60
2018-07-25T20:39:18.413Z,3.70
2018-07-25T20:41:46.104Z,3.03
2018-07-25T20:44:13.642Z,3.10
2018-07-25T20:46:41.487Z,3.30
2018-07-25T20:49:09.090Z,3.20
2018-07-25T20:51:37.116Z,3.70
2018-07-25T20:54:05.034Z,3.33
2018-07-25T20:56:32.780Z,3.53
2018-07-25T20:59:00.340Z,3.97
2018-07-25T21:01:28.375Z,3.63
2018-07-25T21:03:55.948Z,4.00
2018-07-25T21:06:23.500Z,3.70
2018-07-25T21:08:51.580Z,3.33
2018-07-25T21:11:19.351Z,3.87
2018-07-25T21:13:46.936Z,3.50
2018-07-25T21:16:14.856Z,3.50
2018-07-25T21:18:42.403Z,3.90
2018-07-25T21:21:10.090Z,3.63
2018-07-25T21:23:38.158Z,3.93
2018-07-25T21:26:05.670Z,4.07
2018-07-25T21:28:33.215Z,4.33
2018-07-25T21:31:01.352Z,3.90
2018-07-25T21:33:28.898Z,3.77
2018-07-25T21:35:56.516Z,4.03
2018-07-25T21:38:24.545Z,3.57
2018-07-25T21:40:52.104Z,3.80
2018-07-25T21:43:19.640Z,3.73
2018-07-25T21:45:47.545Z,4.13
2018-07-25T21:48:15.154Z,4.23
2018-07-25T21:50:42.661Z,4.00
2018-07-25T21:53:10.672Z,3.90
2018-07-25T21:55:38.241Z,4.40
2018-07-25T21:58:05.759Z,3.87
2018-07-25T22:00:33.514Z,3.70
2018-07-25T22:03:01.108Z,4.10
2018-07-25T22:05:28.702Z,3.80
2018-07-25T22:07:56.428Z,3.67
2018-07-25T22:10:25.967Z,3.90
2018-07-25T22:12:54.330Z,3.90
2018-07-25T22:15:22.279Z,3.50
2018-07-25T22:17:49.809Z,4.37
2018-07-25T22:20:17.404Z,4.20
2018-07-25T22:22:45.478Z,3.60
2018-07-25T22:25:12.991Z,3.63
2018-07-25T22:27:40.521Z,3.87
2018-07-25T22:30:08.644Z,3.83
2018-07-25T22:32:36.252Z,3.87
2018-07-25T22:35:03.908Z,3.87
2018-07-25T22:37:31.838Z,3.83
2018-07-25T22:39:59.408Z,3.87
2018-07-25T22:42:26.945Z,3.83
2018-07-25T22:44:54.862Z,3.73
2018-07-25T22:47:22.390Z,4.27
2018-07-25T22:49:49.969Z,4.10
2018-07-25T22:52:17.737Z,4.37
2018-07-25T22:54:45.765Z,4.10
2018-07-25T22:57:13.361Z,4.10
2018-07-25T22:59:41.264Z,4.07
2018-07-25T23:02:08.817Z,4.13
2018-07-25T23:04:36.415Z,4.17
2018-07-25T23:07:04.589Z,4.00
2018-07-25T23:09:32.130Z,4.40
2018-07-25T23:11:59.787Z,3.70
2018-07-25T23:14:27.722Z,4.20
2018-07-25T23:16:55.375Z,4.70
2018-07-25T23:19:22.949Z,4.37
2018-07-25T23:21:50.814Z,4.70
2018-07-25T23:24:18.466Z,4.20
2018-07-25T23:26:46.031Z,3.90
2018-07-25T23:29:13.975Z,4.50
2018-07-25T23:31:41.548Z,4.07
2018-07-25T23:34:09.131Z,4.10
2018-07-25T23:36:37.042Z,4.13
2018-07-25T23:39:06.655Z,4.13
2018-07-25T23:41:34.209Z,4.00
2018-07-25T23:44:02.059Z,4.30
2018-07-25T23:46:29.658Z,4.33
2018-07-25T23:48:57.257Z,4.20
2018-07-25T23:51:25.205Z,4.47
2018-07-25T23:53:52.781Z,4.13
2018-07-25T23:56:20.669Z,4.20
2018-07-25T23:58:48.420Z,3.83
